sensor_id;sensor_type;location;lat;lon;timestamp;P1;durP1;ratioP1;P2;durP2;ratioP2
549;SDS011;20066;48.764;9.176;2023-02-28T00:01:31;7.82;;;4.03;;
549;SDS011;20066;48.764;9.176;2023-02-28T00:04:01;7.40;;;3.72;;
549;SDS011;20066;48.764;9.176;2023-02-28T00:06:29;7.25;;;3.65;;
549;SDS011;20066;48.764;9.176;2023-02-28T00:08:56;6.75;;;4.10;;
549;SDS011;20066;48.764;9.176;2023-02-28T00:11:24;5.20;;;4.05;;
549;SDS011;20066;48.764;9.176;2023-02-28T00:13:52;5.57;;;3.42;;
549;SDS011;20066;48.764;9.176;2023-02-28T00:16:21;5.88;;;3.65;;
549;SDS011;20066;48.764;9.176;2023-02-28T00:18:49;8.52;;;4.07;;
549;SDS011;20066;48.764;9.176;2023-02-28T00:21:19;7.13;;;4.35;;
549;SDS011;20066;48.764;9.176;2023-02-28T00:23:47;9.82;;;4.30;;
549;SDS011;20066;48.764;9.176;2023-02-28T00:26:15;6.07;;;3.90;;
549;SDS011;20066;48.764;9.176;2023-02-28T00:28:46;6.57;;;3.50;;
549;SDS011;20066;48.764;9.176;2023-02-28T00:31:14;6.75;;;3.65;;
549;SDS011;20066;48.764;9.176;2023-02-28T00:33:42;7.30;;;4.05;;
549;SDS011;20066;48.764;9.176;2023-02-28T00:36:10;7.03;;;4.25;;
549;SDS011;20066;48.764;9.176;2023-02-28T00:38:40;6.40;;;4.00;;
549;SDS011;20066;48.764;9.176;2023-02-28T00:41:08;7.50;;;3.78;;
549;SDS011;20066;48.764;9.176;2023-02-28T00:43:37;7.25;;;4.40;;
549;SDS011;20066;48.764;9.176;2023-02-28T00:46:05;6.80;;;4.55;;
549;SDS011;20066;48.764;9.176;2023-02-28T00:48:34;5.63;;;3.85;;
549;SDS011;20066;48.764;9.176;2023-02-28T00:51:02;6.07;;;4.00;;
549;SDS011;20066;48.764;9.176;2023-02-28T00:53:30;7.15;;;4.10;;
549;SDS011;20066;48.764;9.176;2023-02-28T00:56:00;9.07;;;3.92;;
549;SDS011;20066;48.764;9.176;2023-02-28T00:58:28;5.20;;;3.40;;
549;SDS011;20066;48.764;9.176;2023-02-28T01:00:56;7.13;;;4.30;;
549;SDS011;20066;48.764;9.176;2023-02-28T01:03:24;7.32;;;4.50;;
549;SDS011;20066;48.764;9.176;2023-02-28T01:05:52;6.30;;;3.95;;
549;SDS011;20066;48.764;9.176;2023-02-28T01:08:20;6.22;;;4.15;;
549;SDS011;20066;48.764;9.176;2023-02-28T01:10:48;6.18;;;3.97;;
549;SDS011;20066;48.764;9.176;2023-02-28T01:13:18;6.95;;;3.80;;
549;SDS011;20066;48.764;9.176;2023-02-28T01:15:49;7.38;;;4.18;;
549;SDS011;20066;48.764;9.176;2023-02-28T01:18:18;6.65;;;4.18;;
549;SDS011;20066;48.764;9.176;2023-02-28T01:20:46;5.25;;;3.72;;
549;SDS011;20066;48.764;9.176;2023-02-28T01:23:14;6.65;;;3.92;;
549;SDS011;20066;48.764;9.176;2023-02-28T01:25:42;6.57;;;3.90;;
549;SDS011;20066;48.764;9.176;2023-02-28T01:28:09;6.32;;;4.50;;
549;SDS011;20066;48.764;9.176;2023-02-28T01:30:39;7.43;;;4.00;;
549;SDS011;20066;48.764;9.176;2023-02-28T01:33:06;6.63;;;4.10;;
549;SDS011;20066;48.764;9.176;2023-02-28T01:35:34;7.22;;;4.43;;
549;SDS011;20066;48.764;9.176;2023-02-28T01:38:03;6.20;;;4.28;;
549;SDS011;20066;48.764;9.176;2023-02-28T01:40:46;7.22;;;4.25;;
549;SDS011;20066;48.764;9.176;2023-02-28T01:43:16;7.85;;;4.68;;
549;SDS011;20066;48.764;9.176;2023-02-28T01:45:51;9.05;;;4.13;;
549;SDS011;20066;48.764;9.176;2023-02-28T01:48:19;6.18;;;3.90;;
549;SDS011;20066;48.764;9.176;2023-02-28T01:50:48;6.15;;;4.53;;
549;SDS011;20066;48.764;9.176;2023-02-28T01:53:18;6.43;;;4.65;;
549;SDS011;20066;48.764;9.176;2023-02-28T01:55:49;6.60;;;4.85;;
549;SDS011;20066;48.764;9.176;2023-02-28T01:58:20;6.47;;;4.30;;
549;SDS011;20066;48.764;9.176;2023-02-28T02:00:48;7.60;;;4.15;;
549;SDS011;20066;48.764;9.176;2023-02-28T02:03:18;8.00;;;4.90;;
549;SDS011;20066;48.764;9.176;2023-02-28T02:05:47;7.45;;;5.05;;
549;SDS011;20066;48.764;9.176;2023-02-28T02:08:16;6.13;;;4.93;;
549;SDS011;20066;48.764;9.176;2023-02-28T02:10:46;6.28;;;4.90;;
549;SDS011;20066;48.764;9.176;2023-02-28T02:13:29;7.00;;;4.55;;
549;SDS011;20066;48.764;9.176;2023-02-28T02:16:10;8.02;;;4.88;;
549;SDS011;20066;48.764;9.176;2023-02-28T02:18:54;6.53;;;4.93;;
549;SDS011;20066;48.764;9.176;2023-02-28T02:25:00;9.60;;;5.07;;
549;SDS011;20066;48.764;9.176;2023-02-28T02:27:55;12.18;;;5.35;;
549;SDS011;20066;48.764;9.176;2023-02-28T02:30:38;8.57;;;5.20;;
549;SDS011;20066;48.764;9.176;2023-02-28T02:33:26;7.43;;;4.55;;
549;SDS011;20066;48.764;9.176;2023-02-28T02:36:08;7.38;;;4.80;;
549;SDS011;20066;48.764;9.176;2023-02-28T02:38:42;8.98;;;5.50;;
549;SDS011;20066;48.764;9.176;2023-02-28T02:41:19;6.05;;;4.65;;
549;SDS011;20066;48.764;9.176;2023-02-28T02:43:55;8.10;;;4.80;;
549;SDS011;20066;48.764;9.176;2023-02-28T02:46:29;8.45;;;5.57;;
549;SDS011;20066;48.764;9.176;2023-02-28T02:49:02;9.30;;;5.70;;
549;SDS011;20066;48.764;9.176;2023-02-28T02:51:34;7.95;;;5.20;;
549;SDS011;20066;48.764;9.176;2023-02-28T02:54:05;9.27;;;6.03;;
549;SDS011;20066;48.764;9.176;2023-02-28T02:56:36;8.18;;;5.30;;
549;SDS011;20066;48.764;9.176;2023-02-28T02:59:07;10.02;;;5.78;;
549;SDS011;20066;48.764;9.176;2023-02-28T03:01:38;7.65;;;5.25;;
549;SDS011;20066;48.764;9.176;2023-02-28T03:04:09;8.60;;;5.18;;
549;SDS011;20066;48.764;9.176;2023-02-28T03:06:40;9.68;;;5.40;;
549;SDS011;20066;48.764;9.176;2023-02-28T03:09:08;11.63;;;5.93;;
549;SDS011;20066;48.764;9.176;2023-02-28T03:11:37;6.88;;;5.07;;
549;SDS011;20066;48.764;9.176;2023-02-28T03:14:09;8.45;;;5.20;;
549;SDS011;20066;48.764;9.176;2023-02-28T03:16:57;8.45;;;5.68;;
549;SDS011;20066;48.764;9.176;2023-02-28T03:19:40;7.25;;;5.47;;
549;SDS011;20066;48.764;9.176;2023-02-28T03:22:32;11.43;;;6.32;;
549;SDS011;20066;48.764;9.176;2023-02-28T03:25:17;8.10;;;5.82;;
549;SDS011;20066;48.764;9.176;2023-02-28T03:27:52;11.63;;;5.95;;
549;SDS011;20066;48.764;9.176;2023-02-28T03:30:27;12.45;;;5.95;;
549;SDS011;20066;48.764;9.176;2023-02-28T03:33:05;10.52;;;6.50;;
549;SDS011;20066;48.764;9.176;2023-02-28T03:35:39;10.00;;;7.00;;
549;SDS011;20066;48.764;9.176;2023-02-28T03:38:13;9.27;;;5.40;;
549;SDS011;20066;48.764;9.176;2023-02-28T03:40:47;13.43;;;6.28;;
549;SDS011;20066;48.764;9.176;2023-02-28T03:43:18;8.20;;;6.05;;
549;SDS011;20066;48.764;9.176;2023-02-28T03:46:02;8.00;;;6.10;;
549;SDS011;20066;48.764;9.176;2023-02-28T03:48:36;9.38;;;6.10;;
549;SDS011;20066;48.764;9.176;2023-02-28T03:51:08;8.85;;;6.07;;
549;SDS011;20066;48.764;9.176;2023-02-28T03:53:45;7.88;;;5.60;;
549;SDS011;20066;48.764;9.176;2023-02-28T03:56:18;11.88;;;6.32;;
549;SDS011;20066;48.764;9.176;2023-02-28T03:58:49;8.50;;;5.47;;
549;SDS011;20066;48.764;9.176;2023-02-28T04:01:22;9.85;;;6.20;;
549;SDS011;20066;48.764;9.176;2023-02-28T04:03:54;8.73;;;6.20;;
549;SDS011;20066;48.764;9.176;2023-02-28T04:06:23;10.20;;;6.43;;
549;SDS011;20066;48.764;9.176;2023-02-28T04:08:53;9.90;;;6.20;;
549;SDS011;20066;48.764;9.176;2023-02-28T04:11:22;10.50;;;6.90;;
549;SDS011;20066;48.764;9.176;2023-02-28T04:13:55;7.80;;;5.72;;
549;SDS011;20066;48.764;9.176;2023-02-28T04:16:23;9.55;;;6.20;;
549;SDS011;20066;48.764;9.176;2023-02-28T04:19:00;9.05;;;5.60;;
549;SDS011;20066;48.764;9.176;2023-02-28T04:21:31;11.32;;;6.90;;
549;SDS011;20066;48.764;9.176;2023-02-28T04:24:02;9.98;;;6.20;;
549;SDS011;20066;48.764;9.176;2023-02-28T04:26:30;9.90;;;6.93;;
549;SDS011;20066;48.764;9.176;2023-02-28T04:28:59;9.48;;;6.30;;
549;SDS011;20066;48.764;9.176;2023-02-28T04:31:27;8.65;;;6.07;;
549;SDS011;20066;48.764;9.176;2023-02-28T04:33:56;11.15;;;6.47;;
549;SDS011;20066;48.764;9.176;2023-02-28T04:36:24;10.18;;;6.70;;
549;SDS011;20066;48.764;9.176;2023-02-28T04:38:52;8.27;;;6.07;;
549;SDS011;20066;48.764;9.176;2023-02-28T04:41:22;15.82;;;7.03;;
549;SDS011;20066;48.764;9.176;2023-02-28T04:43:51;11.35;;;6.70;;
549;SDS011;20066;48.764;9.176;2023-02-28T04:46:19;12.15;;;6.88;;
549;SDS011;20066;48.764;9.176;2023-02-28T04:48:47;11.65;;;6.75;;
549;SDS011;20066;48.764;9.176;2023-02-28T04:51:16;8.20;;;5.40;;
549;SDS011;20066;48.764;9.176;2023-02-28T04:53:46;13.85;;;6.70;;
549;SDS011;20066;48.764;9.176;2023-02-28T04:56:15;8.63;;;5.97;;
549;SDS011;20066;48.764;9.176;2023-02-28T04:58:45;12.13;;;6.50;;
549;SDS011;20066;48.764;9.176;2023-02-28T05:01:19;9.73;;;6.57;;
549;SDS011;20066;48.764;9.176;2023-02-28T05:03:50;9.98;;;6.43;;
549;SDS011;20066;48.764;9.176;2023-02-28T05:06:20;10.40;;;6.57;;
549;SDS011;20066;48.764;9.176;2023-02-28T05:08:50;9.95;;;6.80;;
549;SDS011;20066;48.764;9.176;2023-02-28T05:11:19;10.43;;;7.13;;
549;SDS011;20066;48.764;9.176;2023-02-28T05:13:49;9.77;;;6.95;;
549;SDS011;20066;48.764;9.176;2023-02-28T05:16:18;10.10;;;6.82;;
549;SDS011;20066;48.764;9.176;2023-02-28T05:18:46;10.15;;;6.65;;
549;SDS011;20066;48.764;9.176;2023-02-28T05:21:23;12.07;;;6.63;;
549;SDS011;20066;48.764;9.176;2023-02-28T05:23:54;13.20;;;7.20;;
549;SDS011;20066;48.764;9.176;2023-02-28T05:26:22;14.30;;;6.80;;
549;SDS011;20066;48.764;9.176;2023-02-28T05:28:52;11.43;;;7.38;;
549;SDS011;20066;48.764;9.176;2023-02-28T05:31:20;9.20;;;6.90;;
549;SDS011;20066;48.764;9.176;2023-02-28T05:33:48;11.38;;;6.72;;
549;SDS011;20066;48.764;9.176;2023-02-28T05:36:17;12.30;;;6.80;;
549;SDS011;20066;48.764;9.176;2023-02-28T05:38:45;14.45;;;7.13;;
549;SDS011;20066;48.764;9.176;2023-02-28T05:41:14;12.65;;;7.35;;
549;SDS011;20066;48.764;9.176;2023-02-28T05:43:42;13.15;;;6.80;;
549;SDS011;20066;48.764;9.176;2023-02-28T05:46:12;12.95;;;7.28;;
549;SDS011;20066;48.764;9.176;2023-02-28T05:48:41;10.77;;;6.82;;
549;SDS011;20066;48.764;9.176;2023-02-28T05:51:10;12.80;;;7.40;;
549;SDS011;20066;48.764;9.176;2023-02-28T05:53:38;9.75;;;6.75;;
549;SDS011;20066;48.764;9.176;2023-02-28T05:56:06;11.10;;;7.88;;
549;SDS011;20066;48.764;9.176;2023-02-28T05:58:34;12.70;;;8.38;;
549;SDS011;20066;48.764;9.176;2023-02-28T06:03:52;13.82;;;7.20;;
549;SDS011;20066;48.764;9.176;2023-02-28T06:06:20;12.02;;;7.00;;
549;SDS011;20066;48.764;9.176;2023-02-28T06:08:48;11.98;;;7.68;;
549;SDS011;20066;48.764;9.176;2023-02-28T06:11:15;12.75;;;8.32;;
549;SDS011;20066;48.764;9.176;2023-02-28T06:13:43;14.95;;;8.70;;
549;SDS011;20066;48.764;9.176;2023-02-28T06:16:11;15.20;;;8.20;;
549;SDS011;20066;48.764;9.176;2023-02-28T06:18:40;15.10;;;9.13;;
549;SDS011;20066;48.764;9.176;2023-02-28T06:21:09;13.50;;;8.35;;
549;SDS011;20066;48.764;9.176;2023-02-28T06:23:37;13.70;;;8.13;;
549;SDS011;20066;48.764;9.176;2023-02-28T06:26:05;12.70;;;8.27;;
549;SDS011;20066;48.764;9.176;2023-02-28T06:28:33;13.90;;;8.13;;
549;SDS011;20066;48.764;9.176;2023-02-28T06:31:05;18.45;;;8.65;;
549;SDS011;20066;48.764;9.176;2023-02-28T06:33:34;14.77;;;7.95;;
549;SDS011;20066;48.764;9.176;2023-02-28T06:36:04;12.85;;;8.07;;
549;SDS011;20066;48.764;9.176;2023-02-28T06:38:34;12.77;;;7.75;;
549;SDS011;20066;48.764;9.176;2023-02-28T06:41:02;13.70;;;8.40;;
549;SDS011;20066;48.764;9.176;2023-02-28T06:43:32;13.18;;;8.07;;
549;SDS011;20066;48.764;9.176;2023-02-28T06:46:02;15.50;;;8.95;;
549;SDS011;20066;48.764;9.176;2023-02-28T06:48:32;15.73;;;8.23;;
549;SDS011;20066;48.764;9.176;2023-02-28T06:51:01;12.05;;;7.43;;
549;SDS011;20066;48.764;9.176;2023-02-28T06:53:33;16.42;;;8.15;;
549;SDS011;20066;48.764;9.176;2023-02-28T06:56:03;17.65;;;8.48;;
549;SDS011;20066;48.764;9.176;2023-02-28T06:58:32;15.52;;;8.82;;
549;SDS011;20066;48.764;9.176;2023-02-28T07:01:00;12.90;;;7.63;;
549;SDS011;20066;48.764;9.176;2023-02-28T07:03:29;14.48;;;8.35;;
549;SDS011;20066;48.764;9.176;2023-02-28T07:05:59;14.93;;;8.50;;
549;SDS011;20066;48.764;9.176;2023-02-28T07:08:30;15.50;;;9.35;;
549;SDS011;20066;48.764;9.176;2023-02-28T07:11:00;15.60;;;9.75;;
549;SDS011;20066;48.764;9.176;2023-02-28T07:13:28;18.35;;;9.63;;
549;SDS011;20066;48.764;9.176;2023-02-28T07:15:57;15.35;;;8.57;;
549;SDS011;20066;48.764;9.176;2023-02-28T07:18:26;13.63;;;8.60;;
549;SDS011;20066;48.764;9.176;2023-02-28T07:20:54;15.35;;;9.70;;
549;SDS011;20066;48.764;9.176;2023-02-28T07:23:23;14.57;;;8.93;;
549;SDS011;20066;48.764;9.176;2023-02-28T07:25:53;15.60;;;9.32;;
549;SDS011;20066;48.764;9.176;2023-02-28T07:28:21;11.95;;;8.45;;
549;SDS011;20066;48.764;9.176;2023-02-28T07:30:49;18.25;;;10.07;;
549;SDS011;20066;48.764;9.176;2023-02-28T07:33:17;17.88;;;9.80;;
549;SDS011;20066;48.764;9.176;2023-02-28T07:35:45;15.80;;;9.50;;
549;SDS011;20066;48.764;9.176;2023-02-28T07:38:13;15.48;;;9.70;;
549;SDS011;20066;48.764;9.176;2023-02-28T07:40:40;16.45;;;10.15;;
549;SDS011;20066;48.764;9.176;2023-02-28T07:43:10;17.23;;;10.10;;
549;SDS011;20066;48.764;9.176;2023-02-28T07:45:37;16.58;;;9.40;;
549;SDS011;20066;48.764;9.176;2023-02-28T07:48:05;18.35;;;10.15;;
549;SDS011;20066;48.764;9.176;2023-02-28T07:50:36;13.98;;;9.07;;
549;SDS011;20066;48.764;9.176;2023-02-28T07:53:04;15.35;;;9.85;;
549;SDS011;20066;48.764;9.176;2023-02-28T07:55:31;17.77;;;10.35;;
549;SDS011;20066;48.764;9.176;2023-02-28T07:58:00;18.65;;;9.32;;
549;SDS011;20066;48.764;9.176;2023-02-28T08:00:29;17.35;;;10.15;;
549;SDS011;20066;48.764;9.176;2023-02-28T08:02:58;15.52;;;9.88;;
549;SDS011;20066;48.764;9.176;2023-02-28T08:05:26;16.13;;;9.27;;
549;SDS011;20066;48.764;9.176;2023-02-28T08:07:54;14.85;;;9.55;;
549;SDS011;20066;48.764;9.176;2023-02-28T08:10:21;14.18;;;9.35;;
549;SDS011;20066;48.764;9.176;2023-02-28T08:12:50;17.25;;;8.65;;
549;SDS011;20066;48.764;9.176;2023-02-28T08:15:18;16.30;;;8.85;;
549;SDS011;20066;48.764;9.176;2023-02-28T08:17:47;16.08;;;9.73;;
549;SDS011;20066;48.764;9.176;2023-02-28T08:20:15;18.75;;;9.15;;
549;SDS011;20066;48.764;9.176;2023-02-28T08:22:42;19.27;;;9.02;;
549;SDS011;20066;48.764;9.176;2023-02-28T08:25:11;19.33;;;9.02;;
549;SDS011;20066;48.764;9.176;2023-02-28T08:27:39;16.42;;;10.05;;
549;SDS011;20066;48.764;9.176;2023-02-28T08:30:07;15.30;;;10.13;;
549;SDS011;20066;48.764;9.176;2023-02-28T08:32:38;18.40;;;10.00;;
549;SDS011;20066;48.764;9.176;2023-02-28T08:35:08;14.00;;;9.13;;
549;SDS011;20066;48.764;9.176;2023-02-28T08:37:36;24.85;;;9.85;;
549;SDS011;20066;48.764;9.176;2023-02-28T08:40:05;15.85;;;10.20;;
549;SDS011;20066;48.764;9.176;2023-02-28T08:42:33;18.38;;;10.70;;
549;SDS011;20066;48.764;9.176;2023-02-28T08:45:01;16.92;;;10.52;;
549;SDS011;20066;48.764;9.176;2023-02-28T08:47:30;18.27;;;10.35;;
549;SDS011;20066;48.764;9.176;2023-02-28T08:49:58;16.20;;;11.25;;
549;SDS011;20066;48.764;9.176;2023-02-28T08:52:27;18.10;;;10.50;;
549;SDS011;20066;48.764;9.176;2023-02-28T08:54:55;17.15;;;10.30;;
549;SDS011;20066;48.764;9.176;2023-02-28T08:57:23;17.48;;;9.95;;
549;SDS011;20066;48.764;9.176;2023-02-28T08:59:52;22.48;;;10.93;;
549;SDS011;20066;48.764;9.176;2023-02-28T09:02:20;17.20;;;11.35;;
549;SDS011;20066;48.764;9.176;2023-02-28T09:04:48;17.85;;;10.77;;
549;SDS011;20066;48.764;9.176;2023-02-28T09:07:16;16.50;;;10.00;;
549;SDS011;20066;48.764;9.176;2023-02-28T09:09:45;20.13;;;11.38;;
549;SDS011;20066;48.764;9.176;2023-02-28T09:12:21;17.58;;;11.50;;
549;SDS011;20066;48.764;9.176;2023-02-28T09:14:51;19.05;;;11.38;;
549;SDS011;20066;48.764;9.176;2023-02-28T09:17:20;20.95;;;10.50;;
549;SDS011;20066;48.764;9.176;2023-02-28T09:19:48;15.48;;;10.10;;
549;SDS011;20066;48.764;9.176;2023-02-28T09:22:16;18.10;;;9.85;;
549;SDS011;20066;48.764;9.176;2023-02-28T09:24:45;19.13;;;9.98;;
549;SDS011;20066;48.764;9.176;2023-02-28T09:27:13;18.65;;;10.98;;
549;SDS011;20066;48.764;9.176;2023-02-28T09:29:41;17.25;;;11.27;;
549;SDS011;20066;48.764;9.176;2023-02-28T09:32:09;15.50;;;9.68;;
549;SDS011;20066;48.764;9.176;2023-02-28T09:34:37;18.58;;;11.43;;
549;SDS011;20066;48.764;9.176;2023-02-28T09:37:05;15.82;;;10.35;;
549;SDS011;20066;48.764;9.176;2023-02-28T09:39:33;20.33;;;10.90;;
549;SDS011;20066;48.764;9.176;2023-02-28T09:42:02;23.52;;;11.63;;
549;SDS011;20066;48.764;9.176;2023-02-28T09:44:33;18.55;;;11.10;;
549;SDS011;20066;48.764;9.176;2023-02-28T09:47:05;19.50;;;10.02;;
549;SDS011;20066;48.764;9.176;2023-02-28T09:49:39;16.23;;;9.70;;
549;SDS011;20066;48.764;9.176;2023-02-28T09:52:09;16.50;;;10.27;;
549;SDS011;20066;48.764;9.176;2023-02-28T09:54:40;17.55;;;9.80;;
549;SDS011;20066;48.764;9.176;2023-02-28T09:57:19;22.45;;;10.27;;
549;SDS011;20066;48.764;9.176;2023-02-28T09:59:59;16.65;;;9.23;;
549;SDS011;20066;48.764;9.176;2023-02-28T10:02:41;17.95;;;11.38;;
549;SDS011;20066;48.764;9.176;2023-02-28T10:05:20;16.50;;;9.75;;
549;SDS011;20066;48.764;9.176;2023-02-28T10:07:55;18.05;;;9.68;;
549;SDS011;20066;48.764;9.176;2023-02-28T10:10:33;18.45;;;11.13;;
549;SDS011;20066;48.764;9.176;2023-02-28T10:13:11;19.25;;;9.25;;
549;SDS011;20066;48.764;9.176;2023-02-28T10:15:43;18.70;;;10.35;;
549;SDS011;20066;48.764;9.176;2023-02-28T10:18:15;17.25;;;9.68;;
549;SDS011;20066;48.764;9.176;2023-02-28T10:20:48;20.58;;;10.35;;
549;SDS011;20066;48.764;9.176;2023-02-28T10:23:20;16.77;;;9.45;;
549;SDS011;20066;48.764;9.176;2023-02-28T10:25:50;20.33;;;10.50;;
549;SDS011;20066;48.764;9.176;2023-02-28T10:28:25;18.10;;;8.95;;
549;SDS011;20066;48.764;9.176;2023-02-28T10:30:57;18.35;;;10.13;;
549;SDS011;20066;48.764;9.176;2023-02-28T10:33:28;17.80;;;10.23;;
549;SDS011;20066;48.764;9.176;2023-02-28T10:35:57;16.88;;;10.05;;
549;SDS011;20066;48.764;9.176;2023-02-28T10:38:26;22.98;;;10.10;;
549;SDS011;20066;48.764;9.176;2023-02-28T10:41:06;17.63;;;9.00;;
549;SDS011;20066;48.764;9.176;2023-02-28T10:43:37;16.77;;;8.52;;
549;SDS011;20066;48.764;9.176;2023-02-28T10:46:10;19.08;;;10.10;;
549;SDS011;20066;48.764;9.176;2023-02-28T10:48:42;14.50;;;9.02;;
549;SDS011;20066;48.764;9.176;2023-02-28T10:51:14;16.88;;;9.88;;
549;SDS011;20066;48.764;9.176;2023-02-28T10:53:50;21.23;;;10.55;;
549;SDS011;20066;48.764;9.176;2023-02-28T10:56:27;16.10;;;9.82;;
549;SDS011;20066;48.764;9.176;2023-02-28T10:58:59;18.38;;;9.80;;
549;SDS011;20066;48.764;9.176;2023-02-28T11:01:36;16.38;;;9.80;;
549;SDS011;20066;48.764;9.176;2023-02-28T11:04:16;20.58;;;8.88;;
549;SDS011;20066;48.764;9.176;2023-02-28T11:06:45;18.80;;;9.30;;
549;SDS011;20066;48.764;9.176;2023-02-28T11:09:18;17.23;;;9.52;;
549;SDS011;20066;48.764;9.176;2023-02-28T11:11:51;17.88;;;10.00;;
549;SDS011;20066;48.764;9.176;2023-02-28T11:14:20;16.70;;;9.25;;
549;SDS011;20066;48.764;9.176;2023-02-28T11:16:51;16.65;;;9.90;;
549;SDS011;20066;48.764;9.176;2023-02-28T11:19:22;16.80;;;9.82;;
549;SDS011;20066;48.764;9.176;2023-02-28T11:21:54;16.55;;;9.75;;
549;SDS011;20066;48.764;9.176;2023-02-28T11:24:24;15.68;;;8.80;;
549;SDS011;20066;48.764;9.176;2023-02-28T11:26:57;14.98;;;8.38;;
549;SDS011;20066;48.764;9.176;2023-02-28T11:29:27;14.27;;;8.85;;
549;SDS011;20066;48.764;9.176;2023-02-28T11:32:04;17.00;;;9.43;;
549;SDS011;20066;48.764;9.176;2023-02-28T11:34:39;16.73;;;8.63;;
549;SDS011;20066;48.764;9.176;2023-02-28T11:37:10;14.67;;;8.27;;
549;SDS011;20066;48.764;9.176;2023-02-28T11:39:42;13.30;;;8.17;;
549;SDS011;20066;48.764;9.176;2023-02-28T11:45:24;16.10;;;8.63;;
549;SDS011;20066;48.764;9.176;2023-02-28T11:48:05;16.43;;;9.57;;
549;SDS011;20066;48.764;9.176;2023-02-28T11:50:45;13.80;;;9.13;;
549;SDS011;20066;48.764;9.176;2023-02-28T11:53:22;17.70;;;9.18;;
549;SDS011;20066;48.764;9.176;2023-02-28T11:55:59;13.77;;;8.40;;
549;SDS011;20066;48.764;9.176;2023-02-28T11:58:36;15.10;;;8.55;;
549;SDS011;20066;48.764;9.176;2023-02-28T12:01:21;16.45;;;9.00;;
549;SDS011;20066;48.764;9.176;2023-02-28T12:04:10;16.13;;;9.40;;
549;SDS011;20066;48.764;9.176;2023-02-28T12:06:50;14.77;;;9.23;;
549;SDS011;20066;48.764;9.176;2023-02-28T12:09:31;16.23;;;9.13;;
549;SDS011;20066;48.764;9.176;2023-02-28T12:12:11;18.98;;;9.43;;
549;SDS011;20066;48.764;9.176;2023-02-28T12:14:57;16.98;;;10.20;;
549;SDS011;20066;48.764;9.176;2023-02-28T12:17:37;20.42;;;10.00;;
549;SDS011;20066;48.764;9.176;2023-02-28T12:20:18;20.83;;;9.80;;
549;SDS011;20066;48.764;9.176;2023-02-28T12:22:57;17.42;;;9.40;;
549;SDS011;20066;48.764;9.176;2023-02-28T12:25:45;22.55;;;10.10;;
549;SDS011;20066;48.764;9.176;2023-02-28T12:28:20;15.35;;;8.98;;
549;SDS011;20066;48.764;9.176;2023-02-28T12:30:54;15.57;;;9.38;;
549;SDS011;20066;48.764;9.176;2023-02-28T12:33:28;23.05;;;9.82;;
549;SDS011;20066;48.764;9.176;2023-02-28T12:36:03;17.58;;;9.20;;
549;SDS011;20066;48.764;9.176;2023-02-28T12:38:39;16.42;;;9.48;;
549;SDS011;20066;48.764;9.176;2023-02-28T12:41:12;20.52;;;9.73;;
549;SDS011;20066;48.764;9.176;2023-02-28T12:43:44;19.15;;;9.40;;
549;SDS011;20066;48.764;9.176;2023-02-28T12:46:17;15.10;;;9.80;;
549;SDS011;20066;48.764;9.176;2023-02-28T12:48:52;16.70;;;9.00;;
549;SDS011;20066;48.764;9.176;2023-02-28T12:51:23;15.65;;;9.65;;
549;SDS011;20066;48.764;9.176;2023-02-28T12:53:56;17.77;;;8.93;;
549;SDS011;20066;48.764;9.176;2023-02-28T12:56:38;18.50;;;10.45;;
549;SDS011;20066;48.764;9.176;2023-02-28T12:59:13;16.25;;;8.63;;
549;SDS011;20066;48.764;9.176;2023-02-28T13:01:56;16.27;;;9.50;;
549;SDS011;20066;48.764;9.176;2023-02-28T13:04:36;16.35;;;9.63;;
549;SDS011;20066;48.764;9.176;2023-02-28T13:07:28;20.23;;;9.80;;
549;SDS011;20066;48.764;9.176;2023-02-28T13:10:17;18.05;;;9.80;;
549;SDS011;20066;48.764;9.176;2023-02-28T13:12:49;21.38;;;9.50;;
549;SDS011;20066;48.764;9.176;2023-02-28T13:15:19;19.60;;;10.30;;
549;SDS011;20066;48.764;9.176;2023-02-28T13:17:51;17.45;;;9.35;;
549;SDS011;20066;48.764;9.176;2023-02-28T13:20:23;14.30;;;9.18;;
549;SDS011;20066;48.764;9.176;2023-02-28T13:22:58;16.75;;;10.13;;
549;SDS011;20066;48.764;9.176;2023-02-28T13:34:39;17.27;;;10.02;;
549;SDS011;20066;48.764;9.176;2023-02-28T13:37:35;19.00;;;10.02;;
549;SDS011;20066;48.764;9.176;2023-02-28T13:40:28;17.05;;;9.82;;
549;SDS011;20066;48.764;9.176;2023-02-28T13:43:03;16.42;;;9.40;;
549;SDS011;20066;48.764;9.176;2023-02-28T13:45:35;24.65;;;9.63;;
549;SDS011;20066;48.764;9.176;2023-02-28T13:48:13;17.42;;;9.02;;
549;SDS011;20066;48.764;9.176;2023-02-28T13:50:45;15.50;;;9.02;;
549;SDS011;20066;48.764;9.176;2023-02-28T13:56:27;17.98;;;9.95;;
549;SDS011;20066;48.764;9.176;2023-02-28T13:59:04;15.45;;;9.23;;
549;SDS011;20066;48.764;9.176;2023-02-28T14:01:44;18.25;;;8.70;;
549;SDS011;20066;48.764;9.176;2023-02-28T14:04:29;17.58;;;9.88;;
549;SDS011;20066;48.764;9.176;2023-02-28T14:07:18;18.40;;;9.65;;
549;SDS011;20066;48.764;9.176;2023-02-28T14:09:54;19.60;;;8.98;;
549;SDS011;20066;48.764;9.176;2023-02-28T14:15:26;16.17;;;8.98;;
549;SDS011;20066;48.764;9.176;2023-02-28T14:18:20;14.65;;;9.00;;
549;SDS011;20066;48.764;9.176;2023-02-28T14:20:54;17.92;;;10.18;;
549;SDS011;20066;48.764;9.176;2023-02-28T14:23:43;20.83;;;8.93;;
549;SDS011;20066;48.764;9.176;2023-02-28T14:26:33;22.52;;;9.32;;
549;SDS011;20066;48.764;9.176;2023-02-28T14:29:21;14.95;;;8.55;;
549;SDS011;20066;48.764;9.176;2023-02-28T14:32:03;14.73;;;8.63;;
549;SDS011;20066;48.764;9.176;2023-02-28T14:34:42;14.15;;;8.65;;
549;SDS011;20066;48.764;9.176;2023-02-28T14:37:16;16.85;;;8.27;;
549;SDS011;20066;48.764;9.176;2023-02-28T14:39:47;15.63;;;8.50;;
549;SDS011;20066;48.764;9.176;2023-02-28T14:42:30;16.10;;;8.32;;
549;SDS011;20066;48.764;9.176;2023-02-28T14:44:59;19.75;;;8.30;;
549;SDS011;20066;48.764;9.176;2023-02-28T14:47:28;20.23;;;9.13;;
549;SDS011;20066;48.764;9.176;2023-02-28T14:49:59;20.75;;;8.07;;
549;SDS011;20066;48.764;9.176;2023-02-28T14:52:30;15.23;;;7.75;;
549;SDS011;20066;48.764;9.176;2023-02-28T14:55:00;15.48;;;8.38;;
549;SDS011;20066;48.764;9.176;2023-02-28T14:57:34;16.42;;;8.00;;
549;SDS011;20066;48.764;9.176;2023-02-28T15:00:10;14.50;;;7.75;;
549;SDS011;20066;48.764;9.176;2023-02-28T15:02:41;15.40;;;8.27;;
549;SDS011;20066;48.764;9.176;2023-02-28T15:05:19;19.00;;;8.32;;
549;SDS011;20066;48.764;9.176;2023-02-28T15:08:00;17.25;;;9.57;;
549;SDS011;20066;48.764;9.176;2023-02-28T15:10:30;18.90;;;9.63;;
549;SDS011;20066;48.764;9.176;2023-02-28T15:13:00;18.92;;;9.70;;
549;SDS011;20066;48.764;9.176;2023-02-28T15:15:33;15.75;;;9.20;;
549;SDS011;20066;48.764;9.176;2023-02-28T15:18:27;13.65;;;9.07;;
549;SDS011;20066;48.764;9.176;2023-02-28T15:21:01;18.88;;;8.60;;
549;SDS011;20066;48.764;9.176;2023-02-28T15:23:30;16.10;;;8.35;;
549;SDS011;20066;48.764;9.176;2023-02-28T15:25:59;19.90;;;8.73;;
549;SDS011;20066;48.764;9.176;2023-02-28T15:28:29;15.35;;;9.10;;
549;SDS011;20066;48.764;9.176;2023-02-28T15:30:59;18.27;;;8.85;;
549;SDS011;20066;48.764;9.176;2023-02-28T15:33:28;16.05;;;8.30;;
549;SDS011;20066;48.764;9.176;2023-02-28T15:36:04;13.15;;;8.15;;
549;SDS011;20066;48.764;9.176;2023-02-28T15:38:34;17.08;;;8.18;;
549;SDS011;20066;48.764;9.176;2023-02-28T15:41:03;14.60;;;8.20;;
549;SDS011;20066;48.764;9.176;2023-02-28T15:43:36;16.27;;;8.90;;
549;SDS011;20066;48.764;9.176;2023-02-28T15:46:05;15.75;;;8.90;;
549;SDS011;20066;48.764;9.176;2023-02-28T15:48:36;16.02;;;9.25;;
549;SDS011;20066;48.764;9.176;2023-02-28T15:51:21;14.02;;;8.00;;
549;SDS011;20066;48.764;9.176;2023-02-28T15:53:54;21.67;;;8.85;;
549;SDS011;20066;48.764;9.176;2023-02-28T15:56:25;27.63;;;9.55;;
549;SDS011;20066;48.764;9.176;2023-02-28T15:58:56;17.13;;;9.00;;